createdAt,value
2022-10-19T00:00:50.667Z,2.10
2022-10-19T00:03:20.753Z,2.05
2022-10-19T00:05:50.039Z,2.08
2022-10-19T00:08:16.868Z,1.90
2022-10-19T00:10:43.731Z,1.90
2022-10-19T00:13:10.583Z,2.42
2022-10-19T00:15:40.591Z,1.80
2022-10-19T00:18:08.206Z,1.77
2022-10-19T00:20:35.968Z,1.80
2022-10-19T00:23:02.966Z,2.00
2022-10-19T00:25:29.819Z,2.10
2022-10-19T00:27:56.670Z,2.10
2022-10-19T00:30:23.515Z,1.90
2022-10-19T00:32:50.359Z,1.90
2022-10-19T00:35:17.201Z,1.90
2022-10-19T00:37:44.129Z,1.75
2022-10-19T00:40:11.283Z,2.00
2022-10-19T00:42:38.083Z,1.90
2022-10-19T00:45:09.536Z,1.98
2022-10-19T00:47:36.411Z,2.10
2022-10-19T00:50:03.508Z,1.90
2022-10-19T00:52:30.484Z,2.03
2022-10-19T00:54:57.696Z,1.60
2022-10-19T00:57:26.344Z,1.95
2022-10-19T00:59:53.231Z,1.80
2022-10-19T01:02:20.204Z,1.75
2022-10-19T01:04:49.077Z,1.50
2022-10-19T01:07:15.953Z,1.60
2022-10-19T01:09:42.840Z,2.10
2022-10-19T01:12:24.491Z,1.70
2022-10-19T01:15:23.798Z,1.85
2022-10-19T01:17:58.341Z,1.75
2022-10-19T01:20:40.517Z,1.85
2022-10-19T01:23:34.654Z,1.85
2022-10-19T01:26:04.133Z,1.70
2022-10-19T01:28:44.919Z,1.70
2022-10-19T01:31:33.859Z,1.58
2022-10-19T01:34:10.882Z,1.75
2022-10-19T01:36:51.554Z,1.85
2022-10-19T01:39:30.628Z,1.80
2022-10-19T01:42:08.454Z,1.70
2022-10-19T01:45:02.703Z,1.88
2022-10-19T01:47:36.054Z,1.70
2022-10-19T01:50:06.704Z,1.80
2022-10-19T01:52:33.795Z,1.83
2022-10-19T01:55:00.974Z,1.63
2022-10-19T01:57:35.042Z,1.73
2022-10-19T02:00:07.479Z,1.70
2022-10-19T02:02:45.515Z,1.67
2022-10-19T02:05:12.478Z,1.73
2022-10-19T02:07:40.438Z,1.70
2022-10-19T02:10:07.662Z,1.50
2022-10-19T02:12:34.872Z,1.60
2022-10-19T02:15:03.898Z,1.40
2022-10-19T02:17:35.862Z,1.58
2022-10-19T02:20:02.727Z,1.20
2022-10-19T02:22:29.574Z,1.85
2022-10-19T02:24:56.439Z,1.58
2022-10-19T02:27:23.235Z,1.23
2022-10-19T02:29:50.194Z,1.50
2022-10-19T02:32:17.125Z,1.50
2022-10-19T02:34:43.966Z,1.30
2022-10-19T02:37:10.892Z,1.17
2022-10-19T02:39:38.580Z,1.30
2022-10-19T02:42:18.242Z,1.35
2022-10-19T02:44:50.781Z,1.25
2022-10-19T02:47:19.795Z,1.20
2022-10-19T02:49:46.593Z,1.20
2022-10-19T02:52:13.636Z,1.13
2022-10-19T02:54:42.395Z,1.27
2022-10-19T02:57:20.241Z,1.20
2022-10-19T02:59:47.147Z,1.38
2022-10-19T03:02:14.781Z,1.20
2022-10-19T03:04:41.848Z,1.20
2022-10-19T03:07:09.456Z,1.08
2022-10-19T03:09:36.356Z,1.10
2022-10-19T03:12:03.856Z,1.05
2022-10-19T03:14:30.776Z,1.13
2022-10-19T03:16:57.652Z,1.00
2022-10-19T03:19:24.591Z,1.27
2022-10-19T03:21:51.475Z,1.20
2022-10-19T03:24:18.424Z,1.00
2022-10-19T03:26:45.533Z,1.20
2022-10-19T03:29:12.502Z,1.17
2022-10-19T03:31:39.369Z,1.20
2022-10-19T03:34:06.427Z,1.35
2022-10-19T03:36:35.310Z,1.08
2022-10-19T03:39:04.202Z,1.20
2022-10-19T03:41:34.162Z,1.20
2022-10-19T03:46:33.359Z,1.30
2022-10-19T03:49:00.382Z,3.67
2022-10-19T03:51:27.977Z,3.90
2022-10-19T03:53:56.248Z,3.20
2022-10-19T03:56:24.492Z,4.20
2022-10-19T03:58:51.755Z,3.10
2022-10-19T04:01:23.566Z,2.90
2022-10-19T04:03:54.737Z,3.00
2022-10-19T04:06:24.324Z,2.70
2022-10-19T04:08:51.245Z,2.60
2022-10-19T04:11:20.209Z,2.10
2022-10-19T04:13:51.194Z,2.25
2022-10-19T04:16:18.408Z,2.10
2022-10-19T04:18:45.461Z,2.40
2022-10-19T04:21:25.549Z,2.08
2022-10-19T04:23:53.689Z,1.70
2022-10-19T04:26:20.882Z,2.10
2022-10-19T04:28:47.914Z,1.77
2022-10-19T04:31:14.857Z,1.90
2022-10-19T04:33:41.884Z,1.67
2022-10-19T04:36:10.353Z,1.40
2022-10-19T04:38:37.294Z,1.73
2022-10-19T04:41:15.240Z,1.83
2022-10-19T04:43:42.348Z,1.98
2022-10-19T04:46:10.807Z,1.60
2022-10-19T04:48:38.163Z,1.45
2022-10-19T04:51:05.166Z,1.70
2022-10-19T04:53:32.514Z,1.52
2022-10-19T04:55:59.548Z,1.80
2022-10-19T04:58:26.396Z,1.90
2022-10-19T05:00:53.546Z,1.75
2022-10-19T05:03:20.611Z,1.50
2022-10-19T05:05:47.506Z,2.38
2022-10-19T05:08:14.393Z,1.73
2022-10-19T05:10:44.234Z,1.80
2022-10-19T05:13:14.171Z,1.90
2022-10-19T05:15:41.190Z,1.83
2022-10-19T05:18:08.240Z,1.80
2022-10-19T05:20:35.366Z,1.90
2022-10-19T05:23:06.285Z,1.70
2022-10-19T05:25:34.451Z,1.60
2022-10-19T05:28:01.460Z,2.83
2022-10-19T05:30:28.595Z,3.33
2022-10-19T05:32:55.722Z,3.20
2022-10-19T05:35:22.917Z,2.90
2022-10-19T05:37:54.685Z,2.92
2022-10-19T05:40:21.682Z,2.40
2022-10-19T05:42:48.623Z,2.80
2022-10-19T05:45:15.926Z,2.40
2022-10-19T05:47:42.854Z,2.90
2022-10-19T05:50:11.374Z,2.90
2022-10-19T05:52:38.925Z,2.20
2022-10-19T05:55:06.470Z,5.00
2022-10-19T05:57:33.587Z,3.20
2022-10-19T06:00:00.793Z,3.30
2022-10-19T06:02:27.877Z,2.63
2022-10-19T06:04:54.953Z,2.90
2022-10-19T06:07:21.971Z,2.80
2022-10-19T06:09:48.964Z,3.03
2022-10-19T06:12:16.425Z,2.83
2022-10-19T06:14:43.599Z,2.90
2022-10-19T06:17:10.882Z,2.60
2022-10-19T06:19:37.935Z,2.67
2022-10-19T06:22:04.989Z,2.70
2022-10-19T06:24:31.883Z,2.60
2022-10-19T06:26:58.829Z,2.17
2022-10-19T06:29:25.963Z,2.60
2022-10-19T06:31:54.232Z,2.30
2022-10-19T06:34:21.177Z,2.35
2022-10-19T06:36:48.210Z,2.40
2022-10-19T06:39:15.127Z,2.30
2022-10-19T06:41:42.037Z,2.25
2022-10-19T06:44:18.772Z,2.55
2022-10-19T06:46:45.820Z,2.03
2022-10-19T06:49:13.072Z,2.80
2022-10-19T06:51:40.823Z,2.20
2022-10-19T06:54:07.753Z,2.40
2022-10-19T06:56:34.673Z,2.50
2022-10-19T06:59:01.638Z,2.60
2022-10-19T07:01:28.642Z,2.20
2022-10-19T07:03:55.754Z,2.67
2022-10-19T07:06:24.236Z,3.22
2022-10-19T07:08:52.043Z,3.03
2022-10-19T07:11:19.875Z,3.42
2022-10-19T07:13:46.930Z,3.22
2022-10-19T07:16:19.520Z,3.55
2022-10-19T07:21:15.747Z,2.85
2022-10-19T07:23:43.996Z,2.90
2022-10-19T07:26:23.533Z,2.72
2022-10-19T07:28:50.747Z,2.88
2022-10-19T07:31:20.220Z,3.03
2022-10-19T07:33:48.238Z,2.65
2022-10-19T07:36:15.213Z,4.05
2022-10-19T07:38:42.092Z,3.38
2022-10-19T07:41:12.742Z,3.40
2022-10-19T07:43:39.967Z,3.60
2022-10-19T07:46:26.458Z,4.00
2022-10-19T07:48:53.837Z,4.05
2022-10-19T07:51:20.868Z,4.00
2022-10-19T07:53:48.020Z,4.07
2022-10-19T07:56:17.057Z,3.92
2022-10-19T07:58:44.009Z,3.97
2022-10-19T08:01:11.864Z,4.40
2022-10-19T08:06:26.140Z,4.53
2022-10-19T08:08:53.458Z,4.05
2022-10-19T08:11:33.716Z,3.85
2022-10-19T08:14:02.816Z,4.05
2022-10-19T08:16:33.570Z,3.60
2022-10-19T08:19:02.909Z,3.70
2022-10-19T08:21:30.099Z,4.35
2022-10-19T08:23:57.333Z,4.07
2022-10-19T08:26:24.410Z,4.10
2022-10-19T08:28:51.353Z,3.80
2022-10-19T08:31:21.954Z,3.80
2022-10-19T08:33:51.668Z,3.33
2022-10-19T08:36:21.600Z,3.50
2022-10-19T08:38:49.041Z,3.90
2022-10-19T08:41:15.805Z,3.55
2022-10-19T08:44:06.283Z,3.45
2022-10-19T08:46:42.170Z,3.30
2022-10-19T08:49:10.145Z,2.75
2022-10-19T08:51:38.508Z,3.10
2022-10-19T08:54:12.243Z,3.13
2022-10-19T08:56:51.049Z,3.25
2022-10-19T08:59:45.398Z,2.60
2022-10-19T09:02:22.822Z,3.00
2022-10-19T09:04:54.495Z,3.67
2022-10-19T09:07:26.349Z,3.08
2022-10-19T09:10:09.767Z,2.80
2022-10-19T09:12:58.491Z,2.65
2022-10-19T09:15:46.446Z,2.38
2022-10-19T09:18:19.325Z,2.25
2022-10-19T09:20:47.972Z,2.30
2022-10-19T09:23:23.556Z,2.33
2022-10-19T09:25:50.875Z,2.40
2022-10-19T09:28:36.656Z,2.53
2022-10-19T09:31:07.363Z,2.50
2022-10-19T09:33:36.194Z,2.30
2022-10-19T09:36:03.522Z,2.55
2022-10-19T09:38:31.628Z,2.22
2022-10-19T09:40:59.256Z,2.15
2022-10-19T09:43:27.301Z,2.10
2022-10-19T09:45:57.547Z,2.03
2022-10-19T09:48:27.571Z,2.08
2022-10-19T09:51:01.848Z,2.20
2022-10-19T09:53:29.120Z,2.10
2022-10-19T09:56:07.632Z,2.22
2022-10-19T09:58:34.871Z,1.92
2022-10-19T10:01:02.496Z,2.17
2022-10-19T10:03:33.304Z,1.70
2022-10-19T10:06:07.960Z,2.10
2022-10-19T10:08:37.830Z,1.80
2022-10-19T10:11:12.601Z,1.83
2022-10-19T10:13:50.407Z,1.65
2022-10-19T10:16:18.751Z,1.50
2022-10-19T10:19:07.892Z,1.50
2022-10-19T10:21:52.599Z,2.30
2022-10-19T10:24:23.554Z,1.63
2022-10-19T10:26:52.396Z,1.40
2022-10-19T10:29:23.075Z,1.58
2022-10-19T10:31:55.012Z,1.50
2022-10-19T10:35:01.036Z,1.55
2022-10-19T10:37:36.091Z,1.60
2022-10-19T10:40:04.845Z,1.77
2022-10-19T10:42:36.161Z,1.38
2022-10-19T10:45:03.522Z,1.10
2022-10-19T10:47:30.800Z,1.52
2022-10-19T10:50:02.907Z,1.17
2022-10-19T10:52:31.531Z,1.02
2022-10-19T10:55:04.787Z,1.13
2022-10-19T10:57:37.754Z,0.98
2022-10-19T11:00:14.462Z,0.98
2022-10-19T11:02:57.593Z,1.02
2022-10-19T11:05:42.362Z,0.95
2022-10-19T11:08:12.246Z,0.98
2022-10-19T11:11:20.274Z,1.13
2022-10-19T11:14:00.619Z,1.10
2022-10-19T11:16:33.549Z,1.10
2022-10-19T11:19:19.264Z,1.05
2022-10-19T11:21:54.415Z,1.20
2022-10-19T11:24:35.861Z,1.08
2022-10-19T11:27:10.951Z,0.98
2022-10-19T11:30:19.158Z,0.90
2022-10-19T11:32:51.195Z,1.15
2022-10-19T11:35:37.287Z,0.88
2022-10-19T11:38:20.140Z,1.05
2022-10-19T11:41:18.136Z,1.25
2022-10-19T11:43:51.589Z,1.08
2022-10-19T11:46:23.765Z,1.08
2022-10-19T11:49:12.181Z,1.00
2022-10-19T11:51:47.168Z,1.00
2022-10-19T11:54:23.737Z,0.88
2022-10-19T11:57:03.574Z,0.90
2022-10-19T11:59:48.080Z,1.02
2022-10-19T12:02:34.154Z,0.90
2022-10-19T12:05:03.786Z,0.93
2022-10-19T12:08:01.618Z,1.05
2022-10-19T12:10:38.878Z,1.02
2022-10-19T12:13:08.951Z,0.90
2022-10-19T12:15:38.546Z,0.90
2022-10-19T12:18:29.239Z,1.00
2022-10-19T12:20:57.674Z,1.10
2022-10-19T12:23:31.574Z,1.00
2022-10-19T12:26:00.167Z,0.90
2022-10-19T12:28:28.815Z,0.98
2022-10-19T12:30:56.135Z,1.00
2022-10-19T12:33:26.900Z,1.13
2022-10-19T12:36:12.567Z,0.90
2022-10-19T12:39:00.015Z,0.90
2022-10-19T12:41:30.340Z,0.75
2022-10-19T12:44:14.984Z,0.70
2022-10-19T12:46:49.867Z,0.80
2022-10-19T12:49:28.910Z,0.82
2022-10-19T12:51:57.047Z,0.95
2022-10-19T12:54:25.318Z,1.17
2022-10-19T12:56:54.128Z,1.00
2022-10-19T12:59:29.220Z,0.93
2022-10-19T13:01:57.206Z,0.90
2022-10-19T13:04:28.959Z,0.90
2022-10-19T13:07:03.003Z,0.70
2022-10-19T13:09:36.104Z,1.00
2022-10-19T13:12:22.034Z,0.90
2022-10-19T13:14:52.527Z,0.80
2022-10-19T13:17:37.767Z,0.68
2022-10-19T13:20:13.691Z,0.88
2022-10-19T13:22:46.420Z,0.70
2022-10-19T13:25:16.262Z,0.80
2022-10-19T13:27:44.222Z,0.70
2022-10-19T13:30:38.346Z,1.15
2022-10-19T13:33:33.133Z,1.08
2022-10-19T13:36:00.403Z,1.20
2022-10-19T13:38:30.392Z,0.90
2022-10-19T13:41:03.517Z,0.88
2022-10-19T13:43:34.855Z,0.95
2022-10-19T13:46:16.251Z,0.80
2022-10-19T13:49:01.659Z,0.93
2022-10-19T13:51:40.780Z,1.00
2022-10-19T13:55:04.682Z,0.73
2022-10-19T13:58:04.732Z,0.80
2022-10-19T14:00:59.146Z,0.75
2022-10-19T14:03:29.063Z,1.00
2022-10-19T14:06:12.466Z,0.98
2022-10-19T14:08:53.537Z,0.70
2022-10-19T14:11:56.322Z,0.88
2022-10-19T14:14:24.256Z,0.90
2022-10-19T14:16:57.136Z,0.80
2022-10-19T14:19:29.461Z,0.80
2022-10-19T14:21:58.499Z,1.02
2022-10-19T14:24:35.685Z,0.90
2022-10-19T14:27:03.613Z,0.80
2022-10-19T14:29:31.528Z,0.82
2022-10-19T14:31:59.014Z,0.90
2022-10-19T14:34:25.840Z,0.80
2022-10-19T14:36:52.784Z,1.00
2022-10-19T14:39:29.698Z,0.80
2022-10-19T14:41:57.168Z,1.10
2022-10-19T14:44:37.700Z,0.73
2022-10-19T14:47:17.058Z,0.80
2022-10-19T14:49:43.975Z,0.82
2022-10-19T14:52:11.562Z,0.90
2022-10-19T14:54:42.578Z,0.88
2022-10-19T14:57:19.029Z,0.80
2022-10-19T14:59:47.970Z,0.80
2022-10-19T15:02:21.642Z,0.80
2022-10-19T15:04:48.570Z,0.73
2022-10-19T15:07:37.848Z,1.00
2022-10-19T15:10:31.279Z,0.90
2022-10-19T15:13:03.725Z,0.90
2022-10-19T15:15:34.698Z,0.77
2022-10-19T15:18:01.663Z,0.65
2022-10-19T15:20:49.305Z,0.80
2022-10-19T15:23:31.997Z,0.95
2022-10-19T15:25:59.814Z,1.10
2022-10-19T15:28:40.599Z,0.95
2022-10-19T15:31:28.189Z,1.25
2022-10-19T15:33:56.817Z,1.50
2022-10-19T15:36:24.023Z,1.33
2022-10-19T15:39:25.215Z,1.55
2022-10-19T15:41:54.164Z,1.60
2022-10-19T15:44:35.767Z,1.70
2022-10-19T15:47:23.460Z,1.90
2022-10-19T15:50:00.966Z,1.58
2022-10-19T15:52:32.813Z,1.60
2022-10-19T15:55:00.139Z,1.38
2022-10-19T15:57:32.650Z,1.40
2022-10-19T16:00:01.496Z,1.33
2022-10-19T16:02:31.118Z,1.30
2022-10-19T16:04:58.152Z,1.50
2022-10-19T16:07:29.446Z,1.30
2022-10-19T16:09:56.538Z,1.50
2022-10-19T16:12:23.943Z,1.40
2022-10-19T16:14:50.876Z,1.38
2022-10-19T16:17:17.742Z,1.40
2022-10-19T16:19:44.912Z,1.20
2022-10-19T16:22:12.308Z,1.60
2022-10-19T16:24:39.122Z,1.55
2022-10-19T16:27:06.490Z,1.45
2022-10-19T16:29:33.303Z,1.45
2022-10-19T16:32:00.183Z,1.45
2022-10-19T16:34:27.304Z,1.35
2022-10-19T16:36:54.581Z,1.60
2022-10-19T16:39:21.477Z,1.33
2022-10-19T16:41:48.373Z,1.27
2022-10-19T16:44:15.895Z,1.30
2022-10-19T16:46:42.746Z,1.40
2022-10-19T16:49:09.621Z,1.30
2022-10-19T16:51:37.658Z,1.30
2022-10-19T16:54:05.626Z,1.30
2022-10-19T16:56:33.004Z,1.48
2022-10-19T16:59:04.593Z,1.65
2022-10-19T17:01:32.585Z,1.42
2022-10-19T17:03:59.568Z,1.13
2022-10-19T17:06:26.619Z,1.40
2022-10-19T17:09:29.783Z,1.20
2022-10-19T17:11:40.774Z,1.30
2022-10-19T17:14:10.460Z,1.33
2022-10-19T17:16:37.459Z,1.58
2022-10-19T17:19:05.037Z,1.90
2022-10-19T17:21:33.621Z,1.40
2022-10-19T17:24:02.182Z,1.60
2022-10-19T17:26:33.770Z,1.48
2022-10-19T17:29:00.811Z,1.45
2022-10-19T17:31:27.916Z,1.50
2022-10-19T17:33:54.965Z,1.73
2022-10-19T17:36:25.233Z,1.80
2022-10-19T17:38:55.555Z,1.73
2022-10-19T17:41:22.841Z,1.75
2022-10-19T17:43:51.755Z,1.95
2022-10-19T17:46:23.110Z,1.90
2022-10-19T17:48:50.019Z,2.05
2022-10-19T17:51:27.684Z,2.40
2022-10-19T17:53:56.414Z,1.83
2022-10-19T17:56:23.313Z,1.90
2022-10-19T17:58:50.379Z,2.00
2022-10-19T18:01:18.297Z,2.10
2022-10-19T18:03:45.108Z,2.05
2022-10-19T18:06:13.355Z,2.28
2022-10-19T18:08:44.698Z,2.40
2022-10-19T18:11:16.384Z,2.10
2022-10-19T18:13:43.420Z,2.33
2022-10-19T18:16:12.372Z,2.22
2022-10-19T18:18:40.054Z,1.98
2022-10-19T18:21:08.028Z,2.10
2022-10-19T18:23:35.175Z,2.30
2022-10-19T18:26:03.170Z,2.03
2022-10-19T18:28:31.343Z,1.90
2022-10-19T18:31:11.262Z,2.10
2022-10-19T18:33:38.231Z,2.08
2022-10-19T18:36:05.844Z,2.15
2022-10-19T18:38:32.734Z,2.42
2022-10-19T18:41:03.671Z,2.33
2022-10-19T18:43:30.679Z,2.45
2022-10-19T18:45:58.297Z,2.30
2022-10-19T18:48:26.004Z,2.20
2022-10-19T18:50:52.836Z,2.10
2022-10-19T18:53:19.688Z,2.00
2022-10-19T18:55:46.655Z,2.30
2022-10-19T18:58:13.528Z,2.25
2022-10-19T19:00:45.633Z,2.50
2022-10-19T19:03:12.698Z,1.98
2022-10-19T19:05:39.564Z,2.10
2022-10-19T19:08:06.482Z,2.13
2022-10-19T19:10:33.277Z,2.15
2022-10-19T19:13:00.118Z,2.45
2022-10-19T19:15:27.139Z,2.30
2022-10-19T19:17:54.808Z,2.30
2022-10-19T19:20:21.636Z,1.98
2022-10-19T19:22:48.501Z,2.20
2022-10-19T19:25:15.516Z,2.20
2022-10-19T19:27:42.344Z,2.10
2022-10-19T19:30:09.937Z,2.45
2022-10-19T19:32:37.067Z,2.50
2022-10-19T19:35:04.200Z,2.10
2022-10-19T19:37:31.120Z,2.67
2022-10-19T19:39:57.950Z,2.17
2022-10-19T19:42:27.761Z,2.33
2022-10-19T19:44:54.913Z,2.45
2022-10-19T19:47:21.820Z,2.22
2022-10-19T19:49:48.631Z,2.45
2022-10-19T19:52:15.493Z,2.10
2022-10-19T19:54:42.301Z,2.00
2022-10-19T19:57:09.223Z,2.30
2022-10-19T19:59:36.238Z,2.20
2022-10-19T20:02:03.177Z,1.98
2022-10-19T20:04:30.087Z,1.85
2022-10-19T20:06:56.944Z,1.83
2022-10-19T20:09:23.766Z,2.33
2022-10-19T20:11:50.566Z,2.00
2022-10-19T20:14:18.829Z,2.10
2022-10-19T20:16:45.647Z,2.20
2022-10-19T20:19:13.731Z,2.30
2022-10-19T20:21:40.764Z,2.20
2022-10-19T20:24:07.683Z,2.50
2022-10-19T20:26:34.612Z,2.45
2022-10-19T20:29:02.547Z,2.28
2022-10-19T20:31:29.816Z,2.28
2022-10-19T20:33:56.643Z,2.47
2022-10-19T20:36:24.983Z,2.42
2022-10-19T20:38:52.680Z,2.30
2022-10-19T20:41:20.454Z,2.45
2022-10-19T20:43:47.416Z,2.83
2022-10-19T20:46:18.516Z,2.63
2022-10-19T20:48:45.546Z,2.50
2022-10-19T20:51:19.132Z,2.30
2022-10-19T20:53:47.636Z,2.38
2022-10-19T20:56:15.733Z,2.30
2022-10-19T20:58:43.751Z,2.10
2022-10-19T21:01:15.255Z,2.70
2022-10-19T21:03:49.023Z,2.45
2022-10-19T21:06:15.878Z,2.40
2022-10-19T21:08:42.826Z,2.40
2022-10-19T21:11:18.014Z,2.30
2022-10-19T21:13:45.165Z,2.20
2022-10-19T21:16:15.952Z,2.30
2022-10-19T21:18:43.161Z,2.22
2022-10-19T21:21:29.704Z,2.30
2022-10-19T21:24:01.257Z,2.22
2022-10-19T21:26:28.348Z,2.20
2022-10-19T21:28:55.698Z,2.40
2022-10-19T21:31:23.304Z,2.03
2022-10-19T21:33:50.893Z,2.13
2022-10-19T21:36:18.031Z,2.10
2022-10-19T21:38:44.955Z,2.40
2022-10-19T21:41:13.595Z,2.55
2022-10-19T21:43:40.514Z,2.60
2022-10-19T21:46:08.788Z,2.50
2022-10-19T21:48:35.632Z,2.38
2022-10-19T21:51:31.975Z,2.45
2022-10-19T21:53:58.885Z,2.22
2022-10-19T21:56:25.846Z,2.55
2022-10-19T21:58:53.397Z,2.17
2022-10-19T22:01:22.156Z,2.40
2022-10-19T22:03:49.025Z,2.13
2022-10-19T22:06:16.035Z,2.47
2022-10-19T22:08:46.413Z,2.30
2022-10-19T22:11:13.912Z,2.30
2022-10-19T22:13:40.888Z,2.22
2022-10-19T22:16:08.993Z,2.13
2022-10-19T22:18:35.870Z,2.45
2022-10-19T22:21:10.830Z,2.40
2022-10-19T22:23:37.753Z,2.50
2022-10-19T22:26:13.546Z,2.30
2022-10-19T22:28:40.391Z,2.30
2022-10-19T22:31:07.352Z,2.30
2022-10-19T22:33:34.508Z,2.40
2022-10-19T22:36:01.600Z,2.58
2022-10-19T22:38:28.608Z,2.50
2022-10-19T22:41:32.909Z,2.40
2022-10-19T22:44:55.145Z,2.65
2022-10-19T22:47:40.389Z,2.10
2022-10-19T22:53:28.958Z,2.38
2022-10-19T22:55:55.838Z,2.70
2022-10-19T22:58:22.686Z,2.35
2022-10-19T23:01:18.659Z,2.25
2022-10-19T23:03:45.523Z,2.35
2022-10-19T23:06:13.509Z,2.35
2022-10-19T23:08:40.367Z,2.67
2022-10-19T23:11:07.238Z,2.58
2022-10-19T23:13:34.064Z,2.78
2022-10-19T23:16:00.918Z,2.42
2022-10-19T23:18:31.023Z,2.33
2022-10-19T23:21:02.495Z,2.50
2022-10-19T23:23:29.691Z,2.30
2022-10-19T23:26:04.547Z,2.42
2022-10-19T23:28:31.794Z,2.28
2022-10-19T23:30:58.885Z,2.25
2022-10-19T23:33:26.016Z,2.20
2022-10-19T23:35:52.949Z,2.58
2022-10-19T23:38:19.739Z,2.40
2022-10-19T23:40:46.577Z,2.35
2022-10-19T23:43:13.427Z,2.30
2022-10-19T23:45:40.248Z,2.10
2022-10-19T23:48:07.105Z,2.20
2022-10-19T23:50:33.897Z,2.22
2022-10-19T23:53:00.722Z,2.20
2022-10-19T23:55:27.562Z,2.38
2022-10-19T23:57:54.381Z,2.30
